sensor_id;sensor_type;location;lat;lon;timestamp;pressure;altitude;pressure_sealevel;temperature;humidity
39699;BME280;25372;50.582;12.250;2022-07-29T00:00:25;100001.56;;;14.04;60.80
39699;BME280;25372;50.582;12.250;2022-07-29T00:10:46;99995.59;;;14.02;62.30
39699;BME280;25372;50.582;12.250;2022-07-29T00:21:08;99986.84;;;13.46;65.57
39699;BME280;25372;50.582;12.250;2022-07-29T00:31:29;99976.25;;;13.18;65.77
39699;BME280;25372;50.582;12.250;2022-07-29T00:41:51;99962.78;;;12.91;67.92
39699;BME280;25372;50.582;12.250;2022-07-29T00:52:12;99954.66;;;12.64;67.99
39699;BME280;25372;50.582;12.250;2022-07-29T01:02:35;99948.28;;;12.59;69.92
39699;BME280;25372;50.582;12.250;2022-07-29T01:12:58;99922.88;;;12.56;68.62
39699;BME280;25372;50.582;12.250;2022-07-29T01:23:45;99934.06;;;12.73;68.64
39699;BME280;25372;50.582;12.250;2022-07-29T01:34:11;99922.94;;;12.98;66.94
39699;BME280;25372;50.582;12.250;2022-07-29T01:44:41;99917.47;;;13.13;65.68
39699;BME280;25372;50.582;12.250;2022-07-29T01:55:12;99920.22;;;12.91;68.27
39699;BME280;25372;50.582;12.250;2022-07-29T02:05:35;99921.09;;;12.98;68.79
39699;BME280;25372;50.582;12.250;2022-07-29T02:16:00;99914.84;;;13.19;67.10
39699;BME280;25372;50.582;12.250;2022-07-29T02:26:23;99909.38;;;12.93;68.86
39699;BME280;25372;50.582;12.250;2022-07-29T02:36:46;99904.59;;;12.75;69.25
39699;BME280;25372;50.582;12.250;2022-07-29T02:47:14;99892.63;;;12.57;72.02
39699;BME280;25372;50.582;12.250;2022-07-29T02:57:42;99905.63;;;12.73;71.63
39699;BME280;25372;50.582;12.250;2022-07-29T03:08:05;99910.59;;;12.90;71.83
39699;BME280;25372;50.582;12.250;2022-07-29T03:18:28;99905.91;;;12.92;71.33
39699;BME280;25372;50.582;12.250;2022-07-29T03:28:50;99901.81;;;12.89;72.10
39699;BME280;25372;50.582;12.250;2022-07-29T03:39:15;99889.41;;;13.10;71.50
39699;BME280;25372;50.582;12.250;2022-07-29T03:49:38;99878.75;;;13.10;71.02
39699;BME280;25372;50.582;12.250;2022-07-29T04:00:04;99866.88;;;13.06;71.26
39699;BME280;25372;50.582;12.250;2022-07-29T04:10:25;99894.97;;;13.22;71.93
39699;BME280;25372;50.582;12.250;2022-07-29T04:20:47;99900.25;;;13.64;71.27
39699;BME280;25372;50.582;12.250;2022-07-29T04:31:08;99890.25;;;14.19;70.38
39699;BME280;25372;50.582;12.250;2022-07-29T04:41:30;99905.69;;;15.03;67.72
39699;BME280;25372;50.582;12.250;2022-07-29T04:51:51;99887.75;;;15.23;64.66
39699;BME280;25372;50.582;12.250;2022-07-29T05:02:13;99890.91;;;15.45;64.33
39699;BME280;25372;50.582;12.250;2022-07-29T05:12:34;99890.19;;;16.20;59.94
39699;BME280;25372;50.582;12.250;2022-07-29T05:22:56;99889.47;;;16.94;59.69
39699;BME280;25372;50.582;12.250;2022-07-29T05:33:18;99884.78;;;22.44;45.20
39699;BME280;25372;50.582;12.250;2022-07-29T05:43:40;99889.53;;;20.90;44.61
39699;BME280;25372;50.582;12.250;2022-07-29T05:54:00;99888.78;;;18.96;49.64
39699;BME280;25372;50.582;12.250;2022-07-29T06:04:22;99890.78;;;18.77;51.36
39699;BME280;25372;50.582;12.250;2022-07-29T06:14:43;99894.88;;;19.21;49.39
39699;BME280;25372;50.582;12.250;2022-07-29T06:25:06;99893.03;;;19.50;50.47
39699;BME280;25372;50.582;12.250;2022-07-29T06:35:27;99892.66;;;19.75;51.38
39699;BME280;25372;50.582;12.250;2022-07-29T06:45:49;99899.75;;;20.66;49.92
39699;BME280;25372;50.582;12.250;2022-07-29T06:56:10;99902.66;;;20.26;47.86
39699;BME280;25372;50.582;12.250;2022-07-29T07:06:34;99903.38;;;21.21;46.01
39699;BME280;25372;50.582;12.250;2022-07-29T07:16:55;99903.16;;;21.77;45.72
39699;BME280;25372;50.582;12.250;2022-07-29T07:27:17;99903.06;;;22.00;43.96
39699;BME280;25372;50.582;12.250;2022-07-29T07:37:38;99895.53;;;22.34;44.70
39699;BME280;25372;50.582;12.250;2022-07-29T07:48:01;99899.19;;;23.19;41.61
39699;BME280;25372;50.582;12.250;2022-07-29T07:58:22;99895.19;;;23.42;42.20
39699;BME280;25372;50.582;12.250;2022-07-29T08:08:44;99877.38;;;23.92;41.43
39699;BME280;25372;50.582;12.250;2022-07-29T08:19:04;99863.00;;;24.23;39.41
39699;BME280;25372;50.582;12.250;2022-07-29T08:29:26;99859.50;;;25.53;38.44
39699;BME280;25372;50.582;12.250;2022-07-29T08:39:47;99861.38;;;25.52;38.11
39699;BME280;25372;50.582;12.250;2022-07-29T08:50:10;99853.59;;;26.82;36.32
39699;BME280;25372;50.582;12.250;2022-07-29T09:00:31;99847.75;;;29.60;31.93
39699;BME280;25372;50.582;12.250;2022-07-29T09:10:55;99831.72;;;28.85;33.94
39699;BME280;25372;50.582;12.250;2022-07-29T09:21:17;99817.06;;;29.40;33.67
39699;BME280;25372;50.582;12.250;2022-07-29T09:31:57;99807.47;;;28.83;34.14
39699;BME280;25372;50.582;12.250;2022-07-29T09:42:27;99802.72;;;28.33;33.99
39699;BME280;25372;50.582;12.250;2022-07-29T09:52:51;99811.22;;;28.46;32.75
39699;BME280;25372;50.582;12.250;2022-07-29T10:03:13;99804.81;;;29.15;32.05
39699;BME280;25372;50.582;12.250;2022-07-29T10:13:36;99783.56;;;29.48;32.14
39699;BME280;25372;50.582;12.250;2022-07-29T10:23:58;99781.41;;;28.77;31.48
39699;BME280;25372;50.582;12.250;2022-07-29T10:34:29;99783.63;;;29.12;32.82
39699;BME280;25372;50.582;12.250;2022-07-29T10:44:52;99771.53;;;29.49;31.70
39699;BME280;25372;50.582;12.250;2022-07-29T10:55:33;99756.56;;;30.10;31.01
39699;BME280;25372;50.582;12.250;2022-07-29T11:05:56;99756.56;;;30.10;30.41
39699;BME280;25372;50.582;12.250;2022-07-29T11:16:19;99754.72;;;30.36;30.21
39699;BME280;25372;50.582;12.250;2022-07-29T11:26:41;99754.72;;;28.88;31.59
39699;BME280;25372;50.582;12.250;2022-07-29T11:37:20;99738.38;;;29.33;30.69
39699;BME280;25372;50.582;12.250;2022-07-29T11:47:49;99743.06;;;29.73;31.17
39699;BME280;25372;50.582;12.250;2022-07-29T11:58:13;99732.34;;;29.00;31.83
39699;BME280;25372;50.582;12.250;2022-07-29T12:08:40;99722.41;;;29.89;31.88
39699;BME280;25372;50.582;12.250;2022-07-29T12:19:03;99726.97;;;29.94;31.28
39699;BME280;25372;50.582;12.250;2022-07-29T12:29:24;99726.28;;;29.57;31.11
39699;BME280;25372;50.582;12.250;2022-07-29T12:39:47;99709.94;;;29.97;32.23
39699;BME280;25372;50.582;12.250;2022-07-29T12:50:11;99713.91;;;30.49;31.28
39699;BME280;25372;50.582;12.250;2022-07-29T13:00:35;99703.63;;;30.63;31.78
39699;BME280;25372;50.582;12.250;2022-07-29T13:10:56;99693.06;;;29.64;31.86
39699;BME280;25372;50.582;12.250;2022-07-29T13:21:18;99692.81;;;29.43;31.39
39699;BME280;25372;50.582;12.250;2022-07-29T13:31:39;99688.66;;;30.43;30.43
39699;BME280;25372;50.582;12.250;2022-07-29T13:42:01;99683.91;;;29.60;32.50
39699;BME280;25372;50.582;12.250;2022-07-29T13:52:22;99675.59;;;30.40;31.22
39699;BME280;25372;50.582;12.250;2022-07-29T14:02:44;99673.09;;;33.42;26.34
39699;BME280;25372;50.582;12.250;2022-07-29T14:13:05;99658.59;;;32.54;27.37
39699;BME280;25372;50.582;12.250;2022-07-29T14:23:27;99665.81;;;30.56;31.09
39699;BME280;25372;50.582;12.250;2022-07-29T14:33:49;99651.06;;;28.88;31.50
39699;BME280;25372;50.582;12.250;2022-07-29T14:44:11;99656.63;;;29.06;32.13
39699;BME280;25372;50.582;12.250;2022-07-29T14:54:32;99664.56;;;28.93;32.88
39699;BME280;25372;50.582;12.250;2022-07-29T15:04:55;99664.25;;;29.58;32.67
39699;BME280;25372;50.582;12.250;2022-07-29T15:15:16;99656.06;;;28.95;31.45
39699;BME280;25372;50.582;12.250;2022-07-29T15:25:38;99657.28;;;29.74;30.80
39699;BME280;25372;50.582;12.250;2022-07-29T15:35:59;99639.63;;;29.40;30.30
39699;BME280;25372;50.582;12.250;2022-07-29T15:46:21;99639.50;;;28.68;32.34
39699;BME280;25372;50.582;12.250;2022-07-29T15:56:59;99620.19;;;28.06;34.24
39699;BME280;25372;50.582;12.250;2022-07-29T16:07:21;99608.41;;;27.82;34.18
39699;BME280;25372;50.582;12.250;2022-07-29T16:17:42;99616.50;;;27.60;35.21
39699;BME280;25372;50.582;12.250;2022-07-29T16:28:05;99606.66;;;27.17;35.27
39699;BME280;25372;50.582;12.250;2022-07-29T16:38:26;99600.06;;;26.90;35.93
39699;BME280;25372;50.582;12.250;2022-07-29T16:48:49;99609.38;;;26.70;35.93
39699;BME280;25372;50.582;12.250;2022-07-29T16:59:10;99613.47;;;26.30;37.04
39699;BME280;25372;50.582;12.250;2022-07-29T17:09:32;99588.53;;;26.27;37.57
39699;BME280;25372;50.582;12.250;2022-07-29T17:19:53;99608.41;;;26.61;36.29
39699;BME280;25372;50.582;12.250;2022-07-29T17:30:15;99610.31;;;26.41;37.15
39699;BME280;25372;50.582;12.250;2022-07-29T17:40:36;99604.41;;;26.20;37.08
39699;BME280;25372;50.582;12.250;2022-07-29T17:50:58;99598.88;;;26.06;36.54
39699;BME280;25372;50.582;12.250;2022-07-29T18:01:19;99591.75;;;25.67;37.35
39699;BME280;25372;50.582;12.250;2022-07-29T18:11:41;99600.84;;;25.28;38.42
39699;BME280;25372;50.582;12.250;2022-07-29T18:22:02;99603.50;;;24.75;40.95
39699;BME280;25372;50.582;12.250;2022-07-29T18:32:24;99618.38;;;24.37;42.70
39699;BME280;25372;50.582;12.250;2022-07-29T18:42:46;99617.81;;;23.85;45.08
39699;BME280;25372;50.582;12.250;2022-07-29T18:53:08;99610.97;;;23.12;47.84
39699;BME280;25372;50.582;12.250;2022-07-29T19:03:29;99618.53;;;22.90;49.09
39699;BME280;25372;50.582;12.250;2022-07-29T19:13:51;99634.22;;;22.62;51.66
39699;BME280;25372;50.582;12.250;2022-07-29T19:24:12;99654.19;;;22.56;51.89
39699;BME280;25372;50.582;12.250;2022-07-29T19:34:34;99655.00;;;22.67;51.43
39699;BME280;25372;50.582;12.250;2022-07-29T19:44:54;99667.69;;;22.61;51.30
39699;BME280;25372;50.582;12.250;2022-07-29T19:55:16;99663.06;;;22.41;53.26
39699;BME280;25372;50.582;12.250;2022-07-29T20:05:38;99681.91;;;22.25;54.34
39699;BME280;25372;50.582;12.250;2022-07-29T20:16:00;99668.22;;;21.84;56.56
39699;BME280;25372;50.582;12.250;2022-07-29T20:26:23;99680.41;;;21.49;57.49
39699;BME280;25372;50.582;12.250;2022-07-29T20:36:45;99680.44;;;21.17;56.92
39699;BME280;25372;50.582;12.250;2022-07-29T20:47:07;99679.56;;;21.91;50.74
39699;BME280;25372;50.582;12.250;2022-07-29T20:57:29;99694.03;;;21.32;54.96
39699;BME280;25372;50.582;12.250;2022-07-29T21:07:50;99693.53;;;21.03;57.39
39699;BME280;25372;50.582;12.250;2022-07-29T21:18:12;99694.00;;;20.67;59.90
39699;BME280;25372;50.582;12.250;2022-07-29T21:28:46;99687.22;;;20.37;59.91
39699;BME280;25372;50.582;12.250;2022-07-29T21:39:08;99700.47;;;20.22;59.54
39699;BME280;25372;50.582;12.250;2022-07-29T21:49:29;99688.84;;;20.16;61.63
39699;BME280;25372;50.582;12.250;2022-07-29T21:59:51;99694.59;;;20.03;62.01
39699;BME280;25372;50.582;12.250;2022-07-29T22:10:12;99696.59;;;19.91;63.95
39699;BME280;25372;50.582;12.250;2022-07-29T22:20:34;99694.88;;;19.84;62.76
39699;BME280;25372;50.582;12.250;2022-07-29T22:30:55;99694.34;;;19.82;63.13
39699;BME280;25372;50.582;12.250;2022-07-29T22:41:16;99688.97;;;19.82;64.48
39699;BME280;25372;50.582;12.250;2022-07-29T22:51:37;99680.13;;;19.70;64.28
39699;BME280;25372;50.582;12.250;2022-07-29T23:01:59;99677.78;;;19.74;63.45
39699;BME280;25372;50.582;12.250;2022-07-29T23:12:20;99676.13;;;19.50;65.89
39699;BME280;25372;50.582;12.250;2022-07-29T23:22:42;99684.22;;;19.90;64.06
39699;BME280;25372;50.582;12.250;2022-07-29T23:33:03;99690.16;;;20.36;60.49
39699;BME280;25372;50.582;12.250;2022-07-29T23:43:25;99676.88;;;20.29;64.07
39699;BME280;25372;50.582;12.250;2022-07-29T23:53:46;99702.13;;;20.01;68.85
